sensor_id;sensor_type;location;lat;lon;timestamp;temperature;humidity
28177;DHT22;15461;41.652;9.378;2022-08-21T00:02:16;24.10;99.90
28177;DHT22;15461;41.652;9.378;2022-08-21T00:04:43;24.00;99.90
28177;DHT22;15461;41.652;9.378;2022-08-21T00:07:09;24.00;99.90
28177;DHT22;15461;41.652;9.378;2022-08-21T00:09:36;24.00;99.90
28177;DHT22;15461;41.652;9.378;2022-08-21T00:12:03;24.00;99.90
28177;DHT22;15461;41.652;9.378;2022-08-21T00:14:29;24.00;99.90
28177;DHT22;15461;41.652;9.378;2022-08-21T00:16:55;24.00;99.90
28177;DHT22;15461;41.652;9.378;2022-08-21T00:19:21;24.00;99.90
28177;DHT22;15461;41.652;9.378;2022-08-21T00:21:51;24.00;99.90
28177;DHT22;15461;41.652;9.378;2022-08-21T00:24:19;24.00;99.90
28177;DHT22;15461;41.652;9.378;2022-08-21T00:26:45;24.00;99.90
28177;DHT22;15461;41.652;9.378;2022-08-21T00:29:12;23.90;99.90
28177;DHT22;15461;41.652;9.378;2022-08-21T00:31:39;23.90;99.90
28177;DHT22;15461;41.652;9.378;2022-08-21T00:34:05;23.90;99.90
28177;DHT22;15461;41.652;9.378;2022-08-21T00:36:32;23.90;99.90
28177;DHT22;15461;41.652;9.378;2022-08-21T00:38:58;23.90;99.90
28177;DHT22;15461;41.652;9.378;2022-08-21T00:41:24;23.90;99.90
28177;DHT22;15461;41.652;9.378;2022-08-21T00:43:50;23.80;99.90
28177;DHT22;15461;41.652;9.378;2022-08-21T00:46:17;23.80;99.90
28177;DHT22;15461;41.652;9.378;2022-08-21T00:48:43;23.80;99.90
28177;DHT22;15461;41.652;9.378;2022-08-21T00:51:13;23.80;99.90
28177;DHT22;15461;41.652;9.378;2022-08-21T00:53:43;23.80;99.90
28177;DHT22;15461;41.652;9.378;2022-08-21T00:56:11;23.70;99.90
28177;DHT22;15461;41.652;9.378;2022-08-21T00:58:40;23.70;99.90
28177;DHT22;15461;41.652;9.378;2022-08-21T01:01:08;23.70;99.90
28177;DHT22;15461;41.652;9.378;2022-08-21T01:03:35;23.70;99.90
28177;DHT22;15461;41.652;9.378;2022-08-21T01:06:02;23.70;99.90
28177;DHT22;15461;41.652;9.378;2022-08-21T01:08:30;23.70;99.90
28177;DHT22;15461;41.652;9.378;2022-08-21T01:10:57;23.70;99.90
28177;DHT22;15461;41.652;9.378;2022-08-21T01:13:26;23.70;99.90
28177;DHT22;15461;41.652;9.378;2022-08-21T01:15:54;23.70;99.90
28177;DHT22;15461;41.652;9.378;2022-08-21T01:18:21;23.70;99.90
28177;DHT22;15461;41.652;9.378;2022-08-21T01:23:28;23.70;99.90
28177;DHT22;15461;41.652;9.378;2022-08-21T01:25:54;23.60;99.90
28177;DHT22;15461;41.652;9.378;2022-08-21T01:28:21;23.60;99.90
28177;DHT22;15461;41.652;9.378;2022-08-21T01:30:48;23.60;99.90
28177;DHT22;15461;41.652;9.378;2022-08-21T01:33:18;23.60;99.90
28177;DHT22;15461;41.652;9.378;2022-08-21T01:35:44;23.60;99.90
28177;DHT22;15461;41.652;9.378;2022-08-21T01:38:10;23.60;99.90
28177;DHT22;15461;41.652;9.378;2022-08-21T01:40:36;23.60;99.90
28177;DHT22;15461;41.652;9.378;2022-08-21T01:43:02;23.60;99.90
28177;DHT22;15461;41.652;9.378;2022-08-21T01:45:28;23.60;99.90
28177;DHT22;15461;41.652;9.378;2022-08-21T01:47:54;23.50;99.90
28177;DHT22;15461;41.652;9.378;2022-08-21T01:50:20;23.50;99.90
28177;DHT22;15461;41.652;9.378;2022-08-21T01:52:47;23.60;99.90
28177;DHT22;15461;41.652;9.378;2022-08-21T01:55:14;23.60;99.90
28177;DHT22;15461;41.652;9.378;2022-08-21T01:57:40;23.50;99.90
28177;DHT22;15461;41.652;9.378;2022-08-21T02:00:10;23.60;99.90
28177;DHT22;15461;41.652;9.378;2022-08-21T02:02:40;23.50;99.90
28177;DHT22;15461;41.652;9.378;2022-08-21T02:05:08;23.50;99.90
28177;DHT22;15461;41.652;9.378;2022-08-21T02:07:39;23.60;99.90
28177;DHT22;15461;41.652;9.378;2022-08-21T02:10:08;23.60;99.90
28177;DHT22;15461;41.652;9.378;2022-08-21T02:12:35;23.60;99.90
28177;DHT22;15461;41.652;9.378;2022-08-21T02:15:02;23.60;99.90
28177;DHT22;15461;41.652;9.378;2022-08-21T02:17:37;23.50;99.90
28177;DHT22;15461;41.652;9.378;2022-08-21T02:20:04;23.50;99.90
28177;DHT22;15461;41.652;9.378;2022-08-21T02:22:30;23.50;99.90
28177;DHT22;15461;41.652;9.378;2022-08-21T02:24:56;23.40;99.90
28177;DHT22;15461;41.652;9.378;2022-08-21T02:27:23;23.40;99.90
28177;DHT22;15461;41.652;9.378;2022-08-21T02:29:49;23.30;99.90
28177;DHT22;15461;41.652;9.378;2022-08-21T02:32:15;23.20;99.90
28177;DHT22;15461;41.652;9.378;2022-08-21T02:34:41;23.20;99.90
28177;DHT22;15461;41.652;9.378;2022-08-21T02:37:07;23.10;99.90
28177;DHT22;15461;41.652;9.378;2022-08-21T02:39:33;23.10;99.90
28177;DHT22;15461;41.652;9.378;2022-08-21T02:41:59;23.10;99.90
28177;DHT22;15461;41.652;9.378;2022-08-21T02:44:25;23.00;99.90
28177;DHT22;15461;41.652;9.378;2022-08-21T02:46:51;23.10;99.90
28177;DHT22;15461;41.652;9.378;2022-08-21T02:49:17;23.10;99.90
28177;DHT22;15461;41.652;9.378;2022-08-21T02:51:43;23.10;99.90
28177;DHT22;15461;41.652;9.378;2022-08-21T02:54:09;23.10;99.90
28177;DHT22;15461;41.652;9.378;2022-08-21T02:56:34;23.20;99.90
28177;DHT22;15461;41.652;9.378;2022-08-21T02:59:00;23.20;99.90
28177;DHT22;15461;41.652;9.378;2022-08-21T03:01:26;23.20;99.90
28177;DHT22;15461;41.652;9.378;2022-08-21T03:03:52;23.20;99.90
28177;DHT22;15461;41.652;9.378;2022-08-21T03:06:21;23.20;99.90
28177;DHT22;15461;41.652;9.378;2022-08-21T03:08:47;23.20;99.90
28177;DHT22;15461;41.652;9.378;2022-08-21T03:11:14;23.20;99.90
28177;DHT22;15461;41.652;9.378;2022-08-21T03:13:40;23.10;99.90
28177;DHT22;15461;41.652;9.378;2022-08-21T03:16:06;23.00;99.90
28177;DHT22;15461;41.652;9.378;2022-08-21T03:18:33;22.90;99.90
28177;DHT22;15461;41.652;9.378;2022-08-21T03:20:59;22.90;99.90
28177;DHT22;15461;41.652;9.378;2022-08-21T03:23:25;22.80;99.90
28177;DHT22;15461;41.652;9.378;2022-08-21T03:25:51;22.70;99.90
28177;DHT22;15461;41.652;9.378;2022-08-21T03:28:20;22.60;99.90
28177;DHT22;15461;41.652;9.378;2022-08-21T03:30:48;22.60;99.90
28177;DHT22;15461;41.652;9.378;2022-08-21T03:33:15;22.50;99.90
28177;DHT22;15461;41.652;9.378;2022-08-21T03:35:42;22.50;99.90
28177;DHT22;15461;41.652;9.378;2022-08-21T03:38:08;22.60;99.90
28177;DHT22;15461;41.652;9.378;2022-08-21T03:40:34;22.50;99.90
28177;DHT22;15461;41.652;9.378;2022-08-21T03:43:00;22.50;99.90
28177;DHT22;15461;41.652;9.378;2022-08-21T03:45:26;22.40;99.90
28177;DHT22;15461;41.652;9.378;2022-08-21T03:47:59;22.40;99.90
28177;DHT22;15461;41.652;9.378;2022-08-21T03:50:29;22.30;99.90
28177;DHT22;15461;41.652;9.378;2022-08-21T03:52:56;22.20;99.90
28177;DHT22;15461;41.652;9.378;2022-08-21T03:55:23;22.20;99.90
28177;DHT22;15461;41.652;9.378;2022-08-21T03:57:50;22.10;99.90
28177;DHT22;15461;41.652;9.378;2022-08-21T04:00:17;22.10;99.90
28177;DHT22;15461;41.652;9.378;2022-08-21T04:02:44;22.20;99.90
28177;DHT22;15461;41.652;9.378;2022-08-21T04:05:12;22.30;99.90
28177;DHT22;15461;41.652;9.378;2022-08-21T04:07:39;22.30;99.90
28177;DHT22;15461;41.652;9.378;2022-08-21T04:10:06;22.50;99.90
28177;DHT22;15461;41.652;9.378;2022-08-21T04:12:32;22.60;99.90
28177;DHT22;15461;41.652;9.378;2022-08-21T04:14:58;22.60;99.90
28177;DHT22;15461;41.652;9.378;2022-08-21T04:17:24;22.70;99.90
28177;DHT22;15461;41.652;9.378;2022-08-21T04:19:50;22.70;99.90
28177;DHT22;15461;41.652;9.378;2022-08-21T04:22:16;22.80;99.90
28177;DHT22;15461;41.652;9.378;2022-08-21T04:24:42;22.80;99.90
28177;DHT22;15461;41.652;9.378;2022-08-21T04:27:08;22.80;99.90
28177;DHT22;15461;41.652;9.378;2022-08-21T04:29:34;22.80;99.90
28177;DHT22;15461;41.652;9.378;2022-08-21T04:32:00;22.80;99.90
28177;DHT22;15461;41.652;9.378;2022-08-21T04:34:26;22.80;99.90
28177;DHT22;15461;41.652;9.378;2022-08-21T04:36:52;22.70;99.90
28177;DHT22;15461;41.652;9.378;2022-08-21T04:39:17;22.70;99.90
28177;DHT22;15461;41.652;9.378;2022-08-21T04:41:43;22.70;99.90
28177;DHT22;15461;41.652;9.378;2022-08-21T04:44:09;22.70;99.90
28177;DHT22;15461;41.652;9.378;2022-08-21T04:46:35;22.60;99.90
28177;DHT22;15461;41.652;9.378;2022-08-21T04:49:01;22.60;99.90
28177;DHT22;15461;41.652;9.378;2022-08-21T04:51:33;22.50;99.90
28177;DHT22;15461;41.652;9.378;2022-08-21T04:56:36;22.30;99.90
28177;DHT22;15461;41.652;9.378;2022-08-21T04:59:06;22.30;99.90
28177;DHT22;15461;41.652;9.378;2022-08-21T05:01:37;22.20;99.90
28177;DHT22;15461;41.652;9.378;2022-08-21T05:04:04;22.30;99.90
28177;DHT22;15461;41.652;9.378;2022-08-21T05:06:35;22.20;99.90
28177;DHT22;15461;41.652;9.378;2022-08-21T05:09:03;22.20;99.90
28177;DHT22;15461;41.652;9.378;2022-08-21T05:11:30;22.20;99.90
28177;DHT22;15461;41.652;9.378;2022-08-21T05:13:56;22.10;99.90
28177;DHT22;15461;41.652;9.378;2022-08-21T05:16:22;22.10;99.90
28177;DHT22;15461;41.652;9.378;2022-08-21T05:18:48;22.10;99.90
28177;DHT22;15461;41.652;9.378;2022-08-21T05:21:14;22.10;99.90
28177;DHT22;15461;41.652;9.378;2022-08-21T05:23:40;22.10;99.90
28177;DHT22;15461;41.652;9.378;2022-08-21T05:26:06;22.10;99.90
28177;DHT22;15461;41.652;9.378;2022-08-21T05:28:32;22.10;99.90
28177;DHT22;15461;41.652;9.378;2022-08-21T05:30:58;22.20;99.90
28177;DHT22;15461;41.652;9.378;2022-08-21T05:33:24;22.20;99.90
28177;DHT22;15461;41.652;9.378;2022-08-21T05:35:51;22.30;99.90
28177;DHT22;15461;41.652;9.378;2022-08-21T05:38:18;22.30;99.90
28177;DHT22;15461;41.652;9.378;2022-08-21T05:40:45;22.40;99.90
28177;DHT22;15461;41.652;9.378;2022-08-21T05:43:11;22.50;99.90
28177;DHT22;15461;41.652;9.378;2022-08-21T05:45:37;22.50;99.90
28177;DHT22;15461;41.652;9.378;2022-08-21T05:48:15;22.50;99.90
28177;DHT22;15461;41.652;9.378;2022-08-21T05:50:42;22.50;99.90
28177;DHT22;15461;41.652;9.378;2022-08-21T05:53:08;22.60;99.90
28177;DHT22;15461;41.652;9.378;2022-08-21T05:55:36;22.60;99.90
28177;DHT22;15461;41.652;9.378;2022-08-21T05:58:03;22.70;99.90
28177;DHT22;15461;41.652;9.378;2022-08-21T06:00:29;22.90;99.90
28177;DHT22;15461;41.652;9.378;2022-08-21T06:02:55;23.00;99.90
28177;DHT22;15461;41.652;9.378;2022-08-21T06:05:21;23.10;99.90
28177;DHT22;15461;41.652;9.378;2022-08-21T06:07:47;23.20;99.90
28177;DHT22;15461;41.652;9.378;2022-08-21T06:10:13;23.40;99.90
28177;DHT22;15461;41.652;9.378;2022-08-21T06:12:39;23.60;99.90
28177;DHT22;15461;41.652;9.378;2022-08-21T06:15:06;23.80;99.90
28177;DHT22;15461;41.652;9.378;2022-08-21T06:17:32;24.00;99.90
28177;DHT22;15461;41.652;9.378;2022-08-21T06:19:58;24.10;99.90
28177;DHT22;15461;41.652;9.378;2022-08-21T06:22:24;24.30;99.90
28177;DHT22;15461;41.652;9.378;2022-08-21T06:24:50;24.50;99.90
28177;DHT22;15461;41.652;9.378;2022-08-21T06:27:16;24.70;99.90
28177;DHT22;15461;41.652;9.378;2022-08-21T06:29:43;24.80;99.90
28177;DHT22;15461;41.652;9.378;2022-08-21T06:32:11;24.90;99.90
28177;DHT22;15461;41.652;9.378;2022-08-21T06:34:39;25.10;99.90
28177;DHT22;15461;41.652;9.378;2022-08-21T06:37:05;25.20;99.90
28177;DHT22;15461;41.652;9.378;2022-08-21T06:39:32;25.30;99.90
28177;DHT22;15461;41.652;9.378;2022-08-21T06:41:58;25.40;99.90
28177;DHT22;15461;41.652;9.378;2022-08-21T06:44:28;25.50;99.90
28177;DHT22;15461;41.652;9.378;2022-08-21T06:46:54;25.60;99.90
28177;DHT22;15461;41.652;9.378;2022-08-21T06:49:20;25.70;99.90
28177;DHT22;15461;41.652;9.378;2022-08-21T06:51:47;25.90;99.90
28177;DHT22;15461;41.652;9.378;2022-08-21T06:54:13;25.90;99.90
28177;DHT22;15461;41.652;9.378;2022-08-21T06:56:39;25.90;99.90
28177;DHT22;15461;41.652;9.378;2022-08-21T06:59:06;26.00;99.90
28177;DHT22;15461;41.652;9.378;2022-08-21T07:01:32;26.20;99.90
28177;DHT22;15461;41.652;9.378;2022-08-21T07:03:58;26.40;99.90
28177;DHT22;15461;41.652;9.378;2022-08-21T07:06:24;26.50;99.90
28177;DHT22;15461;41.652;9.378;2022-08-21T07:08:51;26.60;99.90
28177;DHT22;15461;41.652;9.378;2022-08-21T07:11:19;26.70;99.90
28177;DHT22;15461;41.652;9.378;2022-08-21T07:13:46;26.60;99.90
28177;DHT22;15461;41.652;9.378;2022-08-21T07:16:13;26.70;99.90
28177;DHT22;15461;41.652;9.378;2022-08-21T07:18:38;26.80;99.90
28177;DHT22;15461;41.652;9.378;2022-08-21T07:21:06;26.90;99.90
28177;DHT22;15461;41.652;9.378;2022-08-21T07:23:38;27.00;99.90
28177;DHT22;15461;41.652;9.378;2022-08-21T07:26:05;26.90;99.90
28177;DHT22;15461;41.652;9.378;2022-08-21T07:28:32;27.00;99.90
28177;DHT22;15461;41.652;9.378;2022-08-21T07:30:59;27.10;99.90
28177;DHT22;15461;41.652;9.378;2022-08-21T07:33:29;27.30;99.90
28177;DHT22;15461;41.652;9.378;2022-08-21T07:35:55;27.50;99.90
28177;DHT22;15461;41.652;9.378;2022-08-21T07:38:22;27.50;99.90
28177;DHT22;15461;41.652;9.378;2022-08-21T07:40:52;27.70;99.90
28177;DHT22;15461;41.652;9.378;2022-08-21T07:43:18;27.70;99.90
28177;DHT22;15461;41.652;9.378;2022-08-21T07:45:45;27.80;99.90
28177;DHT22;15461;41.652;9.378;2022-08-21T07:48:11;27.80;99.90
28177;DHT22;15461;41.652;9.378;2022-08-21T07:50:37;27.90;99.90
28177;DHT22;15461;41.652;9.378;2022-08-21T07:53:04;28.00;99.90
28177;DHT22;15461;41.652;9.378;2022-08-21T07:55:30;28.20;99.90
28177;DHT22;15461;41.652;9.378;2022-08-21T07:57:56;28.30;99.90
28177;DHT22;15461;41.652;9.378;2022-08-21T08:00:24;28.30;99.90
28177;DHT22;15461;41.652;9.378;2022-08-21T08:02:51;28.40;99.90
28177;DHT22;15461;41.652;9.378;2022-08-21T08:05:21;28.50;99.90
28177;DHT22;15461;41.652;9.378;2022-08-21T08:07:47;28.70;99.90
28177;DHT22;15461;41.652;9.378;2022-08-21T08:10:14;28.90;99.90
28177;DHT22;15461;41.652;9.378;2022-08-21T08:12:42;29.10;99.90
28177;DHT22;15461;41.652;9.378;2022-08-21T08:15:13;29.20;99.90
28177;DHT22;15461;41.652;9.378;2022-08-21T08:17:39;29.70;99.90
28177;DHT22;15461;41.652;9.378;2022-08-21T08:20:07;30.00;99.90
28177;DHT22;15461;41.652;9.378;2022-08-21T08:22:35;30.20;99.90
28177;DHT22;15461;41.652;9.378;2022-08-21T08:25:01;30.30;99.90
28177;DHT22;15461;41.652;9.378;2022-08-21T08:27:27;30.40;99.90
28177;DHT22;15461;41.652;9.378;2022-08-21T08:29:53;30.20;99.90
28177;DHT22;15461;41.652;9.378;2022-08-21T08:32:19;29.90;99.90
28177;DHT22;15461;41.652;9.378;2022-08-21T08:34:45;29.60;99.90
28177;DHT22;15461;41.652;9.378;2022-08-21T08:37:13;29.20;99.90
28177;DHT22;15461;41.652;9.378;2022-08-21T08:39:39;29.00;99.90
28177;DHT22;15461;41.652;9.378;2022-08-21T08:44:33;28.90;99.90
28177;DHT22;15461;41.652;9.378;2022-08-21T08:47:01;28.80;99.90
28177;DHT22;15461;41.652;9.378;2022-08-21T08:54:39;28.80;99.90
28177;DHT22;15461;41.652;9.378;2022-08-21T08:57:18;29.00;99.90
28177;DHT22;15461;41.652;9.378;2022-08-21T08:59:48;29.10;99.90
28177;DHT22;15461;41.652;9.378;2022-08-21T09:02:15;29.40;99.90
28177;DHT22;15461;41.652;9.378;2022-08-21T09:04:42;29.70;99.90
28177;DHT22;15461;41.652;9.378;2022-08-21T09:20:19;30.40;99.90
28177;DHT22;15461;41.652;9.378;2022-08-21T09:23:27;30.70;99.90
28177;DHT22;15461;41.652;9.378;2022-08-21T09:26:17;31.00;99.90
28177;DHT22;15461;41.652;9.378;2022-08-21T09:28:44;31.10;98.00
28177;DHT22;15461;41.652;9.378;2022-08-21T09:31:26;31.20;96.90
28177;DHT22;15461;41.652;9.378;2022-08-21T09:34:10;31.40;95.80
28177;DHT22;15461;41.652;9.378;2022-08-21T09:36:47;31.40;94.60
28177;DHT22;15461;41.652;9.378;2022-08-21T09:39:24;31.40;95.10
28177;DHT22;15461;41.652;9.378;2022-08-21T09:42:24;31.50;94.70
28177;DHT22;15461;41.652;9.378;2022-08-21T09:45:13;31.70;94.20
28177;DHT22;15461;41.652;9.378;2022-08-21T09:47:41;32.00;93.80
28177;DHT22;15461;41.652;9.378;2022-08-21T09:50:14;32.10;93.50
28177;DHT22;15461;41.652;9.378;2022-08-21T09:52:49;32.20;92.10
28177;DHT22;15461;41.652;9.378;2022-08-21T09:55:21;32.20;92.30
28177;DHT22;15461;41.652;9.378;2022-08-21T09:58:07;32.10;93.60
28177;DHT22;15461;41.652;9.378;2022-08-21T10:00:34;32.20;95.80
28177;DHT22;15461;41.652;9.378;2022-08-21T10:03:20;32.20;98.40
28177;DHT22;15461;41.652;9.378;2022-08-21T10:06:02;32.10;99.90
28177;DHT22;15461;41.652;9.378;2022-08-21T10:08:33;32.10;99.90
28177;DHT22;15461;41.652;9.378;2022-08-21T10:11:12;32.10;99.90
28177;DHT22;15461;41.652;9.378;2022-08-21T10:14:00;32.20;99.90
28177;DHT22;15461;41.652;9.378;2022-08-21T10:22:09;32.20;99.90
28177;DHT22;15461;41.652;9.378;2022-08-21T10:24:54;32.10;99.90
28177;DHT22;15461;41.652;9.378;2022-08-21T10:29:49;32.10;99.90
28177;DHT22;15461;41.652;9.378;2022-08-21T10:35:33;32.40;99.90
28177;DHT22;15461;41.652;9.378;2022-08-21T10:47:30;32.50;99.90
28177;DHT22;15461;41.652;9.378;2022-08-21T10:55:41;32.50;99.90
28177;DHT22;15461;41.652;9.378;2022-08-21T10:58:33;32.60;99.90
28177;DHT22;15461;41.652;9.378;2022-08-21T11:01:09;32.80;99.90
28177;DHT22;15461;41.652;9.378;2022-08-21T11:03:53;32.90;99.90
28177;DHT22;15461;41.652;9.378;2022-08-21T11:06:30;32.80;99.90
28177;DHT22;15461;41.652;9.378;2022-08-21T11:09:04;32.60;99.90
28177;DHT22;15461;41.652;9.378;2022-08-21T11:11:36;32.60;99.90
28177;DHT22;15461;41.652;9.378;2022-08-21T11:14:17;32.70;99.90
28177;DHT22;15461;41.652;9.378;2022-08-21T11:17:06;32.80;99.90
28177;DHT22;15461;41.652;9.378;2022-08-21T11:19:48;32.80;99.90
28177;DHT22;15461;41.652;9.378;2022-08-21T11:25:25;32.50;99.90
28177;DHT22;15461;41.652;9.378;2022-08-21T11:28:29;32.40;99.90
28177;DHT22;15461;41.652;9.378;2022-08-21T11:36:40;32.50;99.90
28177;DHT22;15461;41.652;9.378;2022-08-21T11:39:32;32.40;99.90
28177;DHT22;15461;41.652;9.378;2022-08-21T11:50:27;32.20;99.90
28177;DHT22;15461;41.652;9.378;2022-08-21T11:55:36;32.40;99.90
28177;DHT22;15461;41.652;9.378;2022-08-21T11:58:15;32.40;99.90
28177;DHT22;15461;41.652;9.378;2022-08-21T12:00:47;32.50;99.90
28177;DHT22;15461;41.652;9.378;2022-08-21T12:05:58;32.80;99.90
28177;DHT22;15461;41.652;9.378;2022-08-21T12:08:32;32.80;99.90
28177;DHT22;15461;41.652;9.378;2022-08-21T12:11:08;32.90;99.90
28177;DHT22;15461;41.652;9.378;2022-08-21T12:13:39;32.80;99.90
28177;DHT22;15461;41.652;9.378;2022-08-21T12:16:16;32.70;99.90
28177;DHT22;15461;41.652;9.378;2022-08-21T12:19:03;32.70;99.90
28177;DHT22;15461;41.652;9.378;2022-08-21T12:21:29;32.50;99.90
28177;DHT22;15461;41.652;9.378;2022-08-21T12:27:01;32.40;99.90
28177;DHT22;15461;41.652;9.378;2022-08-21T12:29:49;32.40;99.90
28177;DHT22;15461;41.652;9.378;2022-08-21T12:32:42;32.30;99.90
28177;DHT22;15461;41.652;9.378;2022-08-21T12:37:59;32.30;99.90
28177;DHT22;15461;41.652;9.378;2022-08-21T12:40:40;32.40;99.90
28177;DHT22;15461;41.652;9.378;2022-08-21T12:43:15;32.50;99.90
28177;DHT22;15461;41.652;9.378;2022-08-21T12:45:47;32.40;99.90
28177;DHT22;15461;41.652;9.378;2022-08-21T12:48:39;32.40;99.90
28177;DHT22;15461;41.652;9.378;2022-08-21T12:51:12;32.40;99.90
28177;DHT22;15461;41.652;9.378;2022-08-21T12:53:56;32.40;99.90
28177;DHT22;15461;41.652;9.378;2022-08-21T12:56:26;32.40;99.90
28177;DHT22;15461;41.652;9.378;2022-08-21T12:59:00;32.40;99.90
28177;DHT22;15461;41.652;9.378;2022-08-21T13:01:49;32.40;99.90
28177;DHT22;15461;41.652;9.378;2022-08-21T13:04:20;32.50;99.90
28177;DHT22;15461;41.652;9.378;2022-08-21T13:06:52;32.50;99.90
28177;DHT22;15461;41.652;9.378;2022-08-21T13:09:24;32.40;99.90
28177;DHT22;15461;41.652;9.378;2022-08-21T13:11:52;32.40;99.90
28177;DHT22;15461;41.652;9.378;2022-08-21T13:16:57;32.20;99.90
28177;DHT22;15461;41.652;9.378;2022-08-21T13:19:24;32.10;99.90
28177;DHT22;15461;41.652;9.378;2022-08-21T13:21:51;32.10;99.90
28177;DHT22;15461;41.652;9.378;2022-08-21T13:24:38;32.00;99.90
28177;DHT22;15461;41.652;9.378;2022-08-21T13:27:29;32.10;99.90
28177;DHT22;15461;41.652;9.378;2022-08-21T13:30:03;32.10;99.90
28177;DHT22;15461;41.652;9.378;2022-08-21T13:32:31;32.10;99.90
28177;DHT22;15461;41.652;9.378;2022-08-21T13:35:07;32.10;99.90
28177;DHT22;15461;41.652;9.378;2022-08-21T13:37:34;32.10;99.90
28177;DHT22;15461;41.652;9.378;2022-08-21T13:40:01;32.20;99.90
28177;DHT22;15461;41.652;9.378;2022-08-21T13:42:30;32.40;99.90
28177;DHT22;15461;41.652;9.378;2022-08-21T13:44:56;32.40;99.90
28177;DHT22;15461;41.652;9.378;2022-08-21T13:47:23;32.40;99.90
28177;DHT22;15461;41.652;9.378;2022-08-21T13:49:51;32.50;99.90
28177;DHT22;15461;41.652;9.378;2022-08-21T13:52:23;32.50;99.90
28177;DHT22;15461;41.652;9.378;2022-08-21T13:55:13;32.40;99.90
28177;DHT22;15461;41.652;9.378;2022-08-21T13:57:41;32.40;99.90
28177;DHT22;15461;41.652;9.378;2022-08-21T14:02:45;32.30;99.90
28177;DHT22;15461;41.652;9.378;2022-08-21T14:05:27;32.20;99.90
28177;DHT22;15461;41.652;9.378;2022-08-21T14:08:14;32.20;99.90
28177;DHT22;15461;41.652;9.378;2022-08-21T14:10:44;32.10;99.90
28177;DHT22;15461;41.652;9.378;2022-08-21T14:13:47;32.20;99.90
28177;DHT22;15461;41.652;9.378;2022-08-21T14:16:21;32.20;99.90
28177;DHT22;15461;41.652;9.378;2022-08-21T14:19:18;32.10;99.90
28177;DHT22;15461;41.652;9.378;2022-08-21T14:21:45;32.10;99.90
28177;DHT22;15461;41.652;9.378;2022-08-21T14:24:28;32.10;99.90
28177;DHT22;15461;41.652;9.378;2022-08-21T14:27:02;32.10;99.90
28177;DHT22;15461;41.652;9.378;2022-08-21T14:29:34;32.00;99.90
28177;DHT22;15461;41.652;9.378;2022-08-21T14:32:15;32.10;99.90
28177;DHT22;15461;41.652;9.378;2022-08-21T14:34:42;32.00;99.90
28177;DHT22;15461;41.652;9.378;2022-08-21T14:37:08;32.10;99.90
28177;DHT22;15461;41.652;9.378;2022-08-21T14:39:33;32.20;99.90
28177;DHT22;15461;41.652;9.378;2022-08-21T14:42:00;32.10;99.90
28177;DHT22;15461;41.652;9.378;2022-08-21T14:44:26;32.00;99.90
28177;DHT22;15461;41.652;9.378;2022-08-21T14:46:53;31.90;99.90
28177;DHT22;15461;41.652;9.378;2022-08-21T14:49:19;31.80;99.90
28177;DHT22;15461;41.652;9.378;2022-08-21T14:51:45;31.80;99.90
28177;DHT22;15461;41.652;9.378;2022-08-21T14:54:11;31.60;99.90
28177;DHT22;15461;41.652;9.378;2022-08-21T14:56:37;31.60;99.90
28177;DHT22;15461;41.652;9.378;2022-08-21T14:59:06;31.70;99.90
28177;DHT22;15461;41.652;9.378;2022-08-21T15:01:34;31.80;99.90
28177;DHT22;15461;41.652;9.378;2022-08-21T15:04:00;31.70;99.90
28177;DHT22;15461;41.652;9.378;2022-08-21T15:06:26;31.90;99.90
28177;DHT22;15461;41.652;9.378;2022-08-21T15:08:52;31.90;99.90
28177;DHT22;15461;41.652;9.378;2022-08-21T15:11:20;31.80;99.90
28177;DHT22;15461;41.652;9.378;2022-08-21T15:13:52;31.80;99.90
28177;DHT22;15461;41.652;9.378;2022-08-21T15:16:18;31.90;99.90
28177;DHT22;15461;41.652;9.378;2022-08-21T15:18:44;31.80;99.90
28177;DHT22;15461;41.652;9.378;2022-08-21T15:21:10;31.80;99.90
28177;DHT22;15461;41.652;9.378;2022-08-21T15:23:36;31.70;99.90
28177;DHT22;15461;41.652;9.378;2022-08-21T15:26:03;31.80;99.90
28177;DHT22;15461;41.652;9.378;2022-08-21T15:28:29;31.80;99.90
28177;DHT22;15461;41.652;9.378;2022-08-21T15:30:55;31.80;99.90
28177;DHT22;15461;41.652;9.378;2022-08-21T15:33:22;31.80;99.90
28177;DHT22;15461;41.652;9.378;2022-08-21T15:35:47;31.70;99.90
28177;DHT22;15461;41.652;9.378;2022-08-21T15:38:14;31.60;99.90
28177;DHT22;15461;41.652;9.378;2022-08-21T15:40:41;31.80;99.90
28177;DHT22;15461;41.652;9.378;2022-08-21T15:43:24;31.80;99.90
28177;DHT22;15461;41.652;9.378;2022-08-21T15:45:50;31.70;99.90
28177;DHT22;15461;41.652;9.378;2022-08-21T15:48:16;31.60;99.90
28177;DHT22;15461;41.652;9.378;2022-08-21T15:50:42;31.60;99.90
28177;DHT22;15461;41.652;9.378;2022-08-21T15:53:09;31.60;99.90
28177;DHT22;15461;41.652;9.378;2022-08-21T15:55:35;31.50;99.90
28177;DHT22;15461;41.652;9.378;2022-08-21T15:58:01;31.60;99.90
28177;DHT22;15461;41.652;9.378;2022-08-21T16:00:32;31.80;99.90
28177;DHT22;15461;41.652;9.378;2022-08-21T16:03:00;31.80;99.90
28177;DHT22;15461;41.652;9.378;2022-08-21T16:05:28;31.60;99.90
28177;DHT22;15461;41.652;9.378;2022-08-21T16:07:54;31.30;99.90
28177;DHT22;15461;41.652;9.378;2022-08-21T16:10:22;31.40;99.90
28177;DHT22;15461;41.652;9.378;2022-08-21T16:13:04;31.30;99.90
28177;DHT22;15461;41.652;9.378;2022-08-21T16:15:30;31.30;99.90
28177;DHT22;15461;41.652;9.378;2022-08-21T16:17:56;31.20;99.90
28177;DHT22;15461;41.652;9.378;2022-08-21T16:20:25;31.30;99.90
28177;DHT22;15461;41.652;9.378;2022-08-21T16:22:54;31.20;99.90
28177;DHT22;15461;41.652;9.378;2022-08-21T16:25:20;31.20;99.90
28177;DHT22;15461;41.652;9.378;2022-08-21T16:27:49;31.20;99.90
28177;DHT22;15461;41.652;9.378;2022-08-21T16:30:17;31.10;99.90
28177;DHT22;15461;41.652;9.378;2022-08-21T16:32:44;30.90;99.90
28177;DHT22;15461;41.652;9.378;2022-08-21T16:35:15;30.90;99.90
28177;DHT22;15461;41.652;9.378;2022-08-21T16:37:41;31.00;99.90
28177;DHT22;15461;41.652;9.378;2022-08-21T16:40:09;31.10;99.90
28177;DHT22;15461;41.652;9.378;2022-08-21T16:42:36;31.10;99.90
28177;DHT22;15461;41.652;9.378;2022-08-21T16:45:14;31.00;99.90
28177;DHT22;15461;41.652;9.378;2022-08-21T16:47:41;31.10;99.90
28177;DHT22;15461;41.652;9.378;2022-08-21T16:50:08;31.10;99.90
28177;DHT22;15461;41.652;9.378;2022-08-21T16:52:34;31.10;99.90
28177;DHT22;15461;41.652;9.378;2022-08-21T16:55:01;31.30;99.90
28177;DHT22;15461;41.652;9.378;2022-08-21T16:57:27;31.20;99.90
28177;DHT22;15461;41.652;9.378;2022-08-21T16:59:53;31.10;99.90
28177;DHT22;15461;41.652;9.378;2022-08-21T17:02:29;31.10;99.90
28177;DHT22;15461;41.652;9.378;2022-08-21T17:04:56;31.20;99.90
28177;DHT22;15461;41.652;9.378;2022-08-21T17:07:22;31.10;99.90
28177;DHT22;15461;41.652;9.378;2022-08-21T17:09:48;31.00;99.90
28177;DHT22;15461;41.652;9.378;2022-08-21T17:12:15;31.00;99.90